Terminal Aerodrome Forecast
Issued by NWS

Home | Current Version | Previous Version | Text Only | Print | Product List | Glossary On
Versions: 1 2 3 4 5 6 7 8 9 10 11 12 13 14 15 16
000
FTAK31 PAJN 200500 RRA
TAFAYA
TAF
PAYA 200541Z 2006/2106 06004KT P6SM OVC100 WS015/08035KT
     FM201200 VRB03KT P6SM BKN050 OVC100
     FM201500 09005KT P6SM VCSH SCT030 OVC050
     FM201800 12008KT 6SM -SHRA SCT015 BKN030 OVC050 WS020/13035KT
      AMD LTD TO CLD VIS AND WIND 2006/2010=

USA.gov is the U.S. government's official web portal to all federal, state and local government web resources and services.